Time;durP1;ratioP1;P1;durP2;ratioP2;P2;SDS_P1;SDS_P2;PMS_P1;PMS_P2;Temp;Humidity;BMP_temperature;BMP_pressure;BME280_temperature;BME280_humidity;BME280_pressure;Samples;Min_cycle;Max_cycle;Signal;HPM_P1;HPM_P2
2021/06/08 00:02:07;;;;;;;9.55;6.50;;;;;;;15.81;89.64;99013.69;5024834;28;20060;-87
2021/06/08 00:04:32;;;;;;;11.23;7.05;;;;;;;15.74;89.62;99010.38;5025833;28;20041;-87
2021/06/08 00:06:58;;;;;;;12.68;7.57;;;;;;;15.66;89.67;99009.75;5024476;28;20065;-87
2021/06/08 00:09:23;;;;;;;10.85;7.25;;;;;;;15.58;90.11;99003.88;5025973;28;20018;-87
2021/06/08 00:11:49;;;;;;;9.93;7.32;;;;;;;15.53;89.43;99008.44;5024439;28;20040;-87
2021/06/08 00:14:14;;;;;;;9.07;6.32;;;;;;;15.47;89.72;99008.66;5025707;28;20025;-87
2021/06/08 00:16:40;;;;;;;9.02;7.03;;;;;;;15.41;89.56;99008.84;5024534;28;20014;-87
2021/06/08 00:19:05;;;;;;;10.43;7.18;;;;;;;15.36;89.81;99000.16;5024290;28;20094;-87
2021/06/08 00:21:31;;;;;;;13.82;7.45;;;;;;;15.35;89.67;98998.41;5024470;28;20325;-87
2021/06/08 00:23:57;;;;;;;10.38;6.88;;;;;;;15.33;90.09;99005.56;5024291;28;20336;-87
2021/06/08 00:26:22;;;;;;;9.05;6.32;;;;;;;15.34;90.07;98996.66;5019099;28;20025;-87
2021/06/08 00:28:47;;;;;;;7.93;6.65;;;;;;;15.35;90.13;99001.06;5024250;28;20018;-87
2021/06/08 00:31:13;;;;;;;10.93;6.88;;;;;;;15.31;89.96;99002.06;5021589;28;20248;-87
2021/06/08 00:33:38;;;;;;;9.57;7.13;;;;;;;15.30;90.18;99002.13;5024102;28;20060;-87
2021/06/08 00:36:04;;;;;;;10.10;7.32;;;;;;;15.35;89.95;99003.72;5024245;28;20014;-87
2021/06/08 00:38:30;;;;;;;8.30;6.90;;;;;;;15.34;89.92;99007.28;5023907;28;20025;-87
2021/06/08 00:40:55;;;;;;;8.80;6.25;;;;;;;15.36;90.15;98999.28;5023826;28;20024;-87
2021/06/08 00:43:24;;;;;;;9.30;6.78;;;;;;;15.38;90.18;99003.66;5020877;28;20065;-87
2021/06/08 00:45:54;;;;;;;9.48;8.00;;;;;;;15.34;89.69;99001.97;5013924;28;20314;-87
2021/06/08 00:48:20;;;;;;;10.82;8.27;;;;;;;15.23;89.98;99004.13;5014349;28;20026;-87
2021/06/08 00:50:46;;;;;;;10.80;8.15;;;;;;;15.23;90.01;99008.53;5012973;28;20034;-87
2021/06/08 00:53:12;;;;;;;8.90;6.95;;;;;;;15.19;90.26;98997.19;5023843;28;20371;-87
2021/06/08 00:55:37;;;;;;;9.18;7.25;;;;;;;15.10;90.53;98998.31;5023697;28;20053;-87
2021/06/08 00:58:03;;;;;;;9.23;7.45;;;;;;;15.10;90.40;99002.78;5023595;28;20017;-87
2021/06/08 01:00:29;;;;;;;9.52;7.78;;;;;;;15.05;90.66;98996.72;5024896;28;20076;-87
2021/06/08 01:02:54;;;;;;;12.50;8.40;;;;;;;14.99;90.80;98996.91;5023007;28;20213;-87
2021/06/08 01:05:20;;;;;;;14.57;7.47;;;;;;;14.92;90.88;99004.22;5023007;28;20022;-87
2021/06/08 01:07:46;;;;;;;10.07;6.93;;;;;;;14.90;91.04;98994.56;5022886;28;20022;-87
2021/06/08 01:10:12;;;;;;;11.48;7.80;;;;;;;14.93;91.02;98999.75;5023218;28;20026;-87
2021/06/08 01:12:38;;;;;;;10.13;7.05;;;;;;;14.87;90.57;98990.22;5023464;28;20100;-87
2021/06/08 01:15:05;;;;;;;10.68;7.47;;;;;;;14.86;90.30;99000.88;5023222;28;20065;-87
2021/06/08 01:17:31;;;;;;;12.82;6.63;;;;;;;14.84;89.27;98997.41;5023126;28;20026;-87
2021/06/08 01:19:58;;;;;;;8.02;6.68;;;;;;;14.88;89.83;98991.09;5024352;28;20025;-87
2021/06/08 01:22:24;;;;;;;10.10;7.07;;;;;;;14.89;90.20;99000.78;5006855;28;20022;-87
2021/06/08 01:24:50;;;;;;;8.77;6.97;;;;;;;14.93;90.57;98992.69;5008660;28;20339;-87
2021/06/08 01:27:18;;;;;;;12.82;6.90;;;;;;;14.81;89.94;99003.66;5006197;28;20024;-87
2021/06/08 01:29:44;;;;;;;11.48;6.70;;;;;;;14.87;89.67;98999.94;5007401;28;20026;-87
2021/06/08 01:32:12;;;;;;;9.90;5.97;;;;;;;14.83;90.02;99004.50;5007396;28;20018;-87
2021/06/08 01:34:38;;;;;;;9.68;6.88;;;;;;;14.83;90.18;98999.19;5007323;28;20215;-87
2021/06/08 01:37:04;;;;;;;10.15;6.90;;;;;;;14.80;90.52;98999.28;5007056;28;20081;-87
2021/06/08 01:39:33;;;;;;;9.75;6.90;;;;;;;14.85;90.27;98996.50;5006491;28;20055;-87
2021/06/08 01:41:59;;;;;;;9.80;6.82;;;;;;;14.83;90.25;98998.31;5022498;28;20337;-87
2021/06/08 01:44:25;;;;;;;8.70;6.70;;;;;;;14.73;90.48;99002.16;5018662;28;20029;-87
2021/06/08 01:46:50;;;;;;;8.82;7.13;;;;;;;14.75;91.15;98997.69;5023780;28;20041;-87
2021/06/08 01:49:16;;;;;;;9.55;7.18;;;;;;;14.81;91.22;99005.47;5022674;28;20312;-87
2021/06/08 01:51:57;;;;;;;13.43;6.10;;;;;;;14.88;90.74;99001.69;5022613;28;20346;-87
2021/06/08 01:54:55;;;;;;;9.63;6.88;;;;;;;14.94;90.54;99012.13;5022595;28;21014;-86
2021/06/08 01:57:48;;;;;;;10.95;8.05;;;;;;;14.96;90.36;99004.97;5023696;28;20254;-86
2021/06/08 02:00:36;;;;;;;9.23;6.55;;;;;;;14.93;90.29;99008.59;5018720;28;20022;-86
2021/06/08 02:03:14;;;;;;;9.20;6.93;;;;;;;15.00;90.30;99009.28;5022702;28;20025;-86
2021/06/08 02:06:15;;;;;;;9.35;7.50;;;;;;;15.03;89.93;99006.53;5018586;28;20268;-86
2021/06/08 02:09:18;;;;;;;11.85;7.97;;;;;;;15.00;90.35;99006.63;5022350;28;20032;-86
2021/06/08 02:12:01;;;;;;;8.48;6.90;;;;;;;15.03;90.02;99009.19;5020930;28;20018;-86
2021/06/08 02:14:59;;;;;;;8.13;6.38;;;;;;;15.05;89.73;98996.72;5023578;28;20025;-86
2021/06/08 02:17:37;;;;;;;9.55;7.95;;;;;;;15.05;89.71;98999.38;5018969;28;20030;-86
2021/06/08 02:20:10;;;;;;;11.50;7.20;;;;;;;14.95;89.79;99001.47;5023649;28;20021;-86
2021/06/08 02:22:40;;;;;;;8.82;6.50;;;;;;;14.99;90.06;99002.22;5021945;28;20029;-87
2021/06/08 02:25:07;;;;;;;12.27;8.05;;;;;;;14.90;90.04;99002.50;5019069;28;20021;-86
2021/06/08 02:27:34;;;;;;;12.13;8.18;;;;;;;14.84;90.46;99002.72;5019069;28;20034;-86
2021/06/08 02:30:00;;;;;;;10.10;7.32;;;;;;;14.80;90.35;98995.75;5019290;28;20028;-87
2021/06/08 02:32:28;;;;;;;9.60;7.65;;;;;;;14.84;90.40;99000.06;5018105;28;20053;-87
2021/06/08 02:34:55;;;;;;;10.63;6.95;;;;;;;14.80;90.67;98998.41;5020157;28;20072;-87
2021/06/08 02:37:22;;;;;;;8.95;6.40;;;;;;;14.82;90.79;98997.47;5022147;28;20032;-87
2021/06/08 02:39:48;;;;;;;8.63;7.30;;;;;;;14.79;90.74;98997.56;5022102;28;20026;-86
2021/06/08 02:42:18;;;;;;;11.35;7.88;;;;;;;14.81;90.47;99000.16;5021873;28;20344;-86
2021/06/08 02:44:45;;;;;;;10.93;7.10;;;;;;;14.76;90.77;98999.41;5022128;28;20101;-86
2021/06/08 02:47:12;;;;;;;16.15;7.18;;;;;;;14.74;90.74;99003.88;5021051;28;20018;-86
2021/06/08 02:49:38;;;;;;;8.60;7.50;;;;;;;14.72;90.68;99005.72;5020487;28;20069;-86
2021/06/08 02:52:05;;;;;;;12.02;7.47;;;;;;;14.65;90.77;98999.72;5021755;28;20081;-86
2021/06/08 02:54:31;;;;;;;9.60;7.35;;;;;;;14.58;90.94;98997.31;5021746;28;20018;-86
2021/06/08 02:56:57;;;;;;;12.32;7.72;;;;;;;14.54;90.97;98991.25;5026009;28;20014;-86
2021/06/08 02:59:27;;;;;;;13.40;7.80;;;;;;;14.58;90.94;99002.59;5021703;28;20025;-86
2021/06/08 03:01:56;;;;;;;14.40;8.82;;;;;;;14.56;91.55;98999.16;5021596;28;20439;-86
2021/06/08 03:04:24;;;;;;;11.48;7.28;;;;;;;14.61;90.93;99002.50;5022756;28;20018;-86
2021/06/08 03:06:56;;;;;;;9.82;7.55;;;;;;;14.60;90.72;99006.09;5025908;28;20049;-87
2021/06/08 03:09:31;;;;;;;12.30;7.88;;;;;;;14.55;91.03;99010.63;5025651;28;20025;-87
2021/06/08 03:12:00;;;;;;;12.45;7.85;;;;;;;14.48;91.12;99011.72;5010698;28;20325;-87
2021/06/08 03:14:27;;;;;;;9.77;8.10;;;;;;;14.42;91.30;99014.56;5025533;28;20017;-87
2021/06/08 03:16:58;;;;;;;10.85;8.30;;;;;;;14.42;91.36;99017.22;5026546;28;20085;-87
2021/06/08 03:19:29;;;;;;;10.07;8.55;;;;;;;14.38;91.29;99011.16;5024353;28;20018;-87
2021/06/08 03:21:59;;;;;;;9.85;7.57;;;;;;;14.33;91.31;99006.91;5025324;28;20212;-87
2021/06/08 03:24:29;;;;;;;10.57;7.35;;;;;;;14.39;91.19;99006.69;5026506;28;20022;-86
2021/06/08 03:26:57;;;;;;;9.30;7.00;;;;;;;14.38;91.28;99004.97;5025148;28;20212;-86
2021/06/08 03:29:24;;;;;;;12.35;7.03;;;;;;;14.33;90.63;99012.19;5026330;28;20097;-86
2021/06/08 03:31:50;;;;;;;10.13;7.35;;;;;;;14.24;91.10;99013.28;5025148;28;20018;-86
2021/06/08 03:34:16;;;;;;;11.40;8.23;;;;;;;14.23;91.22;99015.97;5025288;28;20097;-86
2021/06/08 03:36:45;;;;;;;10.32;7.60;;;;;;;14.30;91.33;99018.41;5025362;28;20022;-86
2021/06/08 03:39:12;;;;;;;12.77;7.97;;;;;;;14.26;91.28;99006.19;5026789;28;20048;-86
2021/06/08 03:41:38;;;;;;;11.27;8.43;;;;;;;14.27;91.62;99007.91;5026233;28;20042;-90
2021/06/08 03:44:06;;;;;;;11.38;7.38;;;;;;;14.35;91.49;99020.94;5025194;28;20033;-89
2021/06/08 03:46:34;;;;;;;11.18;7.25;;;;;;;14.37;90.85;99021.78;5024706;28;20034;-89
2021/06/08 03:49:00;;;;;;;16.02;7.82;;;;;;;14.32;90.87;99026.31;5024905;28;20021;-89
2021/06/08 03:51:28;;;;;;;11.65;7.75;;;;;;;14.45;90.92;99033.88;5008550;28;20280;-89
2021/06/08 03:53:54;;;;;;;9.70;7.13;;;;;;;14.53;90.91;99031.88;5008684;28;20033;-90
2021/06/08 03:56:20;;;;;;;11.82;7.40;;;;;;;14.58;90.15;99029.09;5026481;28;20026;-89
2021/06/08 03:58:46;;;;;;;8.95;7.47;;;;;;;14.51;90.14;99032.84;5024703;28;20311;-88
2021/06/08 04:01:12;;;;;;;10.88;7.75;;;;;;;14.56;90.38;99036.25;5024538;28;20095;-88
2021/06/08 04:03:39;;;;;;;12.32;7.78;;;;;;;14.60;90.12;99037.88;5024646;28;20028;-88
2021/06/08 04:06:05;;;;;;;9.18;7.63;;;;;;;14.69;90.28;99037.63;5024286;28;20096;-89
2021/06/08 04:08:31;;;;;;;14.43;7.80;;;;;;;14.71;89.00;99049.03;5024478;28;20025;-89
2021/06/08 04:10:57;;;;;;;11.23;8.32;;;;;;;14.73;89.06;99041.91;5024731;28;20041;-90
2021/06/08 04:13:23;;;;;;;11.07;8.25;;;;;;;14.66;89.37;99043.00;5024464;28;20029;-89
2021/06/08 04:15:50;;;;;;;15.32;9.10;;;;;;;14.76;90.01;99049.75;5026106;28;20068;-89
2021/06/08 04:18:15;;;;;;;17.00;8.93;;;;;;;14.84;89.58;99053.91;5024982;28;20025;-89
2021/06/08 04:20:41;;;;;;;13.93;10.05;;;;;;;14.92;89.43;99045.75;5024849;28;20225;-89
2021/06/08 04:23:07;;;;;;;18.48;10.55;;;;;;;14.94;90.11;99035.97;5024862;28;20021;-89
2021/06/08 04:25:33;;;;;;;12.57;9.77;;;;;;;14.99;89.99;99036.69;5024805;28;20347;-89
2021/06/08 04:27:59;;;;;;;12.50;9.57;;;;;;;15.09;89.74;99040.78;5024719;28;20025;-89
2021/06/08 04:30:26;;;;;;;14.40;8.93;;;;;;;15.02;89.41;99049.84;5025851;28;20033;-89
2021/06/08 04:32:51;;;;;;;10.45;8.85;;;;;;;15.17;88.84;99044.09;5024700;28;20225;-89
2021/06/08 04:35:18;;;;;;;13.43;8.00;;;;;;;15.32;88.67;99050.69;5024700;28;20055;-89
2021/06/08 04:37:44;;;;;;;9.18;7.60;;;;;;;15.47;88.63;99047.59;5025768;28;20068;-89
2021/06/08 04:40:11;;;;;;;9.48;7.32;;;;;;;15.51;88.44;99052.75;5024552;28;20021;-89
2021/06/08 04:42:42;;;;;;;10.68;8.07;;;;;;;15.50;87.98;99056.28;5025337;28;20050;-89
2021/06/08 04:45:08;;;;;;;14.13;8.23;;;;;;;15.48;87.93;99058.16;5024455;28;20018;-89
2021/06/08 04:47:34;;;;;;;10.88;7.55;;;;;;;15.49;88.06;99059.88;5024348;28;20026;-89
2021/06/08 04:49:59;;;;;;;12.55;7.95;;;;;;;15.48;88.35;99055.50;5025575;28;20177;-89
2021/06/08 04:52:25;;;;;;;13.95;9.00;;;;;;;15.48;88.59;99057.28;5025513;28;20028;-89
2021/06/08 04:54:50;;;;;;;11.95;8.50;;;;;;;15.49;88.42;99059.00;5024234;28;20056;-89
2021/06/08 04:57:17;;;;;;;12.05;8.88;;;;;;;15.51;88.94;99058.06;5024229;28;20029;-89
2021/06/08 05:00:01;;;;;;;12.68;9.15;;;;;;;15.44;88.91;99061.78;5024190;28;20022;-89
2021/06/08 05:02:38;;;;;;;14.23;9.35;;;;;;;15.59;88.73;99053.34;5024216;28;20057;-89
2021/06/08 05:05:22;;;;;;;11.00;8.45;;;;;;;15.70;88.41;99045.91;5024111;28;20053;-89
2021/06/08 05:08:11;;;;;;;13.25;9.25;;;;;;;15.86;88.27;99049.78;5025163;28;20094;-89
2021/06/08 05:10:50;;;;;;;16.30;10.75;;;;;;;16.01;88.29;99046.59;5024019;28;20053;-89
2021/06/08 05:13:17;;;;;;;15.68;11.15;;;;;;;16.17;88.84;99045.13;5023661;28;20220;-89
2021/06/08 05:15:44;;;;;;;13.32;11.18;;;;;;;16.25;88.28;99051.06;5023907;28;20063;-89
2021/06/08 05:18:14;;;;;;;15.45;13.00;;;;;;;16.34;87.81;99042.78;5023839;28;20124;-89
2021/06/08 05:20:41;;;;;;;19.58;13.43;;;;;;;16.43;88.06;99050.44;5023834;28;20075;-89
2021/06/08 05:23:07;;;;;;;21.85;13.90;;;;;;;16.51;88.38;99052.81;5023771;28;20025;-89
2021/06/08 05:25:33;;;;;;;19.73;13.27;;;;;;;16.58;88.13;99052.53;5023763;28;20228;-89
2021/06/08 05:28:00;;;;;;;18.00;12.48;;;;;;;16.67;86.47;99052.19;5023651;28;20033;-89
2021/06/08 05:30:26;;;;;;;15.05;12.05;;;;;;;16.76;85.01;99054.50;5023690;28;20136;-89
2021/06/08 05:32:51;;;;;;;15.50;11.35;;;;;;;16.88;84.88;99055.84;5023697;28;20257;-89
2021/06/08 05:35:25;;;;;;;20.88;14.15;;;;;;;17.01;86.20;99055.31;5023636;28;20321;-89
2021/06/08 05:37:50;;;;;;;18.08;12.15;;;;;;;17.27;83.97;99053.44;5023605;28;20321;-89
2021/06/08 05:40:16;;;;;;;15.85;12.00;;;;;;;17.42;83.35;99060.81;5023469;28;20041;-89
2021/06/08 05:42:41;;;;;;;16.65;12.70;;;;;;;17.54;83.19;99063.00;5023281;28;20042;-89
2021/06/08 05:45:07;;;;;;;14.70;11.75;;;;;;;17.64;81.61;99059.03;5024580;28;20032;-89
2021/06/08 05:47:33;;;;;;;15.90;11.63;;;;;;;17.77;80.96;99054.94;5023315;28;20037;-89
2021/06/08 05:49:58;;;;;;;19.15;13.20;;;;;;;17.92;78.76;99056.97;5023059;28;20021;-89
2021/06/08 05:52:25;;;;;;;14.88;11.65;;;;;;;18.14;79.01;99049.81;5023345;28;20018;-89
2021/06/08 05:54:51;;;;;;;17.15;12.10;;;;;;;18.16;77.56;99053.28;5023273;28;20026;-89
2021/06/08 05:57:17;;;;;;;16.60;11.48;;;;;;;18.60;77.72;99052.22;5023177;28;20017;-89
2021/06/08 05:59:42;;;;;;;18.33;11.73;;;;;;;18.89;75.89;99057.97;5023235;28;20018;-89
2021/06/08 06:02:12;;;;;;;18.23;11.50;;;;;;;18.76;76.65;99058.59;5023080;28;20104;-89
2021/06/08 06:04:38;;;;;;;16.30;12.07;;;;;;;18.74;77.40;99057.81;5023175;28;20118;-89
2021/06/08 06:07:04;;;;;;;15.20;11.38;;;;;;;18.52;76.19;99057.03;5023089;28;20225;-89
2021/06/08 06:09:32;;;;;;;15.05;12.00;;;;;;;18.42;77.53;99058.38;5024198;28;20029;-89
2021/06/08 06:11:58;;;;;;;15.88;12.27;;;;;;;18.45;77.53;99064.41;5023099;28;20026;-89
2021/06/08 06:14:26;;;;;;;19.95;11.90;;;;;;;18.23;77.52;99065.41;5023095;28;20018;-89
2021/06/08 06:16:54;;;;;;;16.08;11.68;;;;;;;18.28;78.38;99055.41;5023080;28;20097;-89
2021/06/08 06:19:26;;;;;;;16.55;12.48;;;;;;;18.30;77.69;99067.75;5022992;28;20018;-89
2021/06/08 06:21:53;;;;;;;19.08;13.43;;;;;;;18.30;79.07;99057.09;5024034;28;20152;-89
2021/06/08 06:24:20;;;;;;;24.20;12.38;;;;;;;18.35;78.64;99054.22;5024855;28;20092;-89
2021/06/08 06:26:48;;;;;;;17.63;12.50;;;;;;;18.58;77.25;99070.94;5026981;28;20030;-89
2021/06/08 06:29:14;;;;;;;18.65;12.63;;;;;;;18.67;76.73;99061.69;5027034;28;20018;-89
2021/06/08 06:31:48;;;;;;;16.67;12.13;;;;;;;18.87;77.48;99066.97;5026887;28;20022;-89
2021/06/08 06:34:16;;;;;;;17.85;12.23;;;;;;;19.29;76.38;99073.00;5027009;28;20324;-89
2021/06/08 06:36:48;;;;;;;19.80;13.13;;;;;;;19.67;74.63;99068.50;5026875;28;20038;-90
2021/06/08 06:39:17;;;;;;;17.13;11.52;;;;;;;19.57;74.56;99069.88;5026865;28;20105;-89
2021/06/08 06:41:48;;;;;;;17.45;12.82;;;;;;;19.29;74.79;99070.34;5026543;28;20355;-89
2021/06/08 06:44:14;;;;;;;16.83;12.80;;;;;;;19.24;75.10;99081.19;5027911;28;20026;-89
2021/06/08 06:46:40;;;;;;;16.73;12.48;;;;;;;19.28;74.92;99071.28;5026668;28;20333;-89
2021/06/08 06:49:07;;;;;;;17.17;11.98;;;;;;;19.21;74.98;99080.50;5026383;28;20030;-89
2021/06/08 06:51:33;;;;;;;16.13;12.80;;;;;;;19.04;75.79;99077.72;5026644;28;20034;-89
2021/06/08 06:53:59;;;;;;;18.63;14.10;;;;;;;18.83;77.61;99078.72;5026578;28;20267;-89
2021/06/08 06:56:25;;;;;;;16.55;13.35;;;;;;;18.82;76.58;99082.31;5027616;28;20018;-89
2021/06/08 06:58:51;;;;;;;17.35;13.77;;;;;;;18.75;76.52;99079.06;5026431;28;20093;-89
2021/06/08 07:01:23;;;;;;;19.20;12.95;;;;;;;18.83;76.33;99078.72;5026382;28;20033;-89
2021/06/08 07:03:55;;;;;;;20.15;12.55;;;;;;;18.83;77.24;99070.72;5027497;28;20038;-89
2021/06/08 07:06:22;;;;;;;22.27;13.60;;;;;;;18.69;76.98;99078.47;5026250;28;20028;-90
2021/06/08 07:08:55;;;;;;;23.33;13.98;;;;;;;18.49;77.29;99079.38;5026325;28;20053;-89
2021/06/08 07:11:24;;;;;;;17.45;13.40;;;;;;;18.60;77.31;99076.19;5026189;28;20060;-89
2021/06/08 07:13:50;;;;;;;16.40;12.43;;;;;;;18.55;77.61;99073.78;5027330;28;20022;-89
2021/06/08 07:16:17;;;;;;;19.65;13.40;;;;;;;18.65;78.08;99076.88;5026138;28;20025;-89
2021/06/08 07:18:47;;;;;;;16.80;13.30;;;;;;;18.69;78.21;99081.13;5026148;28;20042;-89
2021/06/08 07:21:15;;;;;;;15.88;13.68;;;;;;;18.74;76.93;99085.34;5026080;28;20029;-89
2021/06/08 07:23:45;;;;;;;17.00;13.52;;;;;;;18.80;77.61;99078.88;5027099;28;20025;-89
2021/06/08 07:26:11;;;;;;;17.17;13.25;;;;;;;18.68;78.23;99090.06;5025855;28;20026;-89
2021/06/08 07:28:38;;;;;;;21.65;13.32;;;;;;;18.77;77.21;99095.00;5025921;28;20321;-89
2021/06/08 07:31:04;;;;;;;18.17;13.27;;;;;;;18.60;78.48;99089.53;5025799;28;20022;-89
2021/06/08 07:33:35;;;;;;;19.67;13.95;;;;;;;18.64;78.84;99093.81;5025860;28;20090;-89
2021/06/08 07:36:03;;;;;;;16.55;13.65;;;;;;;18.60;77.16;99097.53;5025304;28;20324;-89
2021/06/08 07:38:34;;;;;;;18.20;13.27;;;;;;;18.63;77.46;99084.06;5025728;28;20321;-89
2021/06/08 07:41:13;;;;;;;20.00;14.05;;;;;;;18.77;77.23;99084.34;5025570;28;20044;-89
2021/06/08 07:43:46;;;;;;;18.13;12.68;;;;;;;18.86;77.06;99083.94;5025655;28;20030;-89
2021/06/08 07:46:18;;;;;;;18.45;13.55;;;;;;;18.99;75.98;99091.28;5025310;28;20021;-89
2021/06/08 07:48:45;;;;;;;18.58;13.02;;;;;;;19.03;76.03;99090.22;5025563;28;20224;-89
2021/06/08 07:51:16;;;;;;;17.60;13.68;;;;;;;19.09;76.69;99094.41;5026551;28;20034;-89
2021/06/08 07:53:53;;;;;;;17.02;12.50;;;;;;;19.13;74.97;99093.31;5026469;28;20037;-89
2021/06/08 07:56:22;;;;;;;15.55;12.73;;;;;;;19.23;75.26;99081.28;5025203;28;20033;-89
2021/06/08 07:58:48;;;;;;;17.38;13.23;;;;;;;19.80;73.45;99078.50;5025383;28;20190;-89
2021/06/08 08:01:20;;;;;;;16.30;12.18;;;;;;;20.35;72.33;99085.50;5025301;28;20032;-89
2021/06/08 08:03:46;;;;;;;16.17;12.88;;;;;;;20.47;71.06;99079.53;5025283;28;20026;-89
2021/06/08 08:06:13;;;;;;;16.52;11.65;;;;;;;20.71;71.12;99086.28;5025151;28;20033;-89
2021/06/08 08:08:39;;;;;;;13.25;11.00;;;;;;;21.24;67.91;99094.97;5025192;28;20128;-89
2021/06/08 08:11:14;;;;;;;18.13;12.32;;;;;;;21.59;67.43;99089.47;5025040;28;20025;-89
2021/06/08 08:13:44;;;;;;;13.80;11.07;;;;;;;22.07;67.13;99082.19;5025095;28;20232;-90
2021/06/08 08:16:11;;;;;;;14.65;11.68;;;;;;;22.52;64.63;99084.88;5025063;28;20022;-90
2021/06/08 08:18:38;;;;;;;16.75;11.18;;;;;;;22.00;65.90;99088.00;5024747;28;20097;-89
2021/06/08 08:21:08;;;;;;;16.13;11.93;;;;;;;21.80;65.37;99085.63;5024802;28;20040;-90
2021/06/08 08:23:37;;;;;;;18.08;11.32;;;;;;;21.84;66.52;99080.00;5024887;28;20029;-89
2021/06/08 08:26:06;;;;;;;15.13;11.40;;;;;;;22.56;65.89;99074.81;5024732;28;20030;-90
2021/06/08 08:28:37;;;;;;;13.18;11.38;;;;;;;22.62;64.65;99075.28;5024790;28;20092;-90
2021/06/08 08:31:07;;;;;;;13.65;11.32;;;;;;;23.02;62.52;99062.97;5024726;28;20121;-90
2021/06/08 08:33:34;;;;;;;12.95;10.80;;;;;;;22.61;64.16;99067.34;5024726;28;20263;-90
2021/06/08 08:36:01;;;;;;;15.68;10.90;;;;;;;22.78;64.82;99076.09;5025784;28;20136;-90
2021/06/08 08:38:27;;;;;;;13.98;11.30;;;;;;;22.54;66.64;99072.22;5024292;28;20038;-90
2021/06/08 08:40:53;;;;;;;16.00;10.75;;;;;;;22.12;64.30;99073.88;5024336;28;20029;-90
2021/06/08 08:43:22;;;;;;;15.90;12.00;;;;;;;21.53;66.01;99073.75;5008187;28;20057;-90
2021/06/08 08:45:48;;;;;;;16.73;12.50;;;;;;;21.56;67.58;99074.44;5023998;28;20025;-90
2021/06/08 08:48:15;;;;;;;16.45;12.45;;;;;;;21.60;66.57;99059.03;5023599;28;20089;-89
2021/06/08 08:50:40;;;;;;;14.25;11.57;;;;;;;21.93;67.19;99067.88;5024383;28;20030;-89
2021/06/08 08:53:07;;;;;;;16.40;11.38;;;;;;;22.77;64.96;99068.13;5024194;28;20025;-90
2021/06/08 08:55:35;;;;;;;15.20;10.75;;;;;;;23.52;63.78;99066.03;5025649;28;20041;-90
2021/06/08 08:58:03;;;;;;;15.43;10.35;;;;;;;24.30;59.95;99068.81;5023993;28;20325;-90
2021/06/08 09:00:33;;;;;;;11.80;10.60;;;;;;;23.65;60.56;99058.88;5023864;28;20057;-90
2021/06/08 09:03:03;;;;;;;13.73;11.13;;;;;;;23.59;63.45;99061.97;5025226;28;20040;-90
2021/06/08 09:05:35;;;;;;;14.95;10.45;;;;;;;23.84;61.76;99067.47;5023797;28;20041;-90
2021/06/08 09:08:04;;;;;;;15.60;11.60;;;;;;;23.68;60.03;99064.06;5024396;28;20022;-90
2021/06/08 09:10:34;;;;;;;14.32;11.43;;;;;;;23.64;61.27;99062.53;5025088;28;20048;-90
2021/06/08 09:13:05;;;;;;;19.15;10.90;;;;;;;24.09;60.21;99064.91;5025424;28;20313;-90
2021/06/08 09:15:36;;;;;;;15.27;11.65;;;;;;;24.06;58.94;99070.47;5025067;28;20026;-90
2021/06/08 09:18:03;;;;;;;13.35;10.77;;;;;;;24.41;59.35;99065.41;5023879;28;20349;-90
2021/06/08 09:20:32;;;;;;;14.52;10.60;;;;;;;25.40;57.58;99062.88;5023906;28;20022;-90
2021/06/08 09:23:02;;;;;;;12.27;10.60;;;;;;;25.22;57.82;99065.88;5023795;28;20029;-90
2021/06/08 09:25:34;;;;;;;16.73;10.30;;;;;;;24.63;59.09;99055.75;5025090;28;20038;-90
2021/06/08 09:28:26;;;;;;;15.38;11.43;;;;;;;24.22;58.18;99076.56;5023665;28;20317;-90
2021/06/08 09:31:12;;;;;;;13.43;12.02;;;;;;;23.92;59.76;99066.97;5023812;28;20029;-90
2021/06/08 09:33:44;;;;;;;13.77;11.50;;;;;;;23.71;59.45;99063.84;5024768;28;20024;-90
2021/06/08 09:36:27;;;;;;;13.32;10.70;;;;;;;23.73;60.53;99064.59;5024725;28;20017;-90
2021/06/08 09:39:15;;;;;;;12.77;11.13;;;;;;;24.08;58.90;99065.84;5021534;28;20033;-89
2021/06/08 09:41:57;;;;;;;15.40;11.32;;;;;;;24.14;59.00;99060.06;5024488;28;20240;-90
2021/06/08 09:44:26;;;;;;;13.68;10.10;;;;;;;24.27;59.40;99069.03;5024929;28;20037;-90
2021/06/08 09:46:55;;;;;;;14.35;10.70;;;;;;;23.99;60.21;99063.81;5023351;28;20026;-90
2021/06/08 09:49:38;;;;;;;15.27;11.60;;;;;;;24.05;57.60;99063.41;5023356;28;20092;-90
2021/06/08 09:52:06;;;;;;;13.85;11.45;;;;;;;23.96;60.15;99064.00;5023799;28;20030;-89
2021/06/08 09:54:36;;;;;;;13.65;11.65;;;;;;;23.78;60.97;99065.19;5023422;28;20022;-90
2021/06/08 09:57:26;;;;;;;15.73;12.05;;;;;;;23.72;59.96;99065.56;5023335;28;20248;-90
2021/06/08 10:00:01;;;;;;;15.77;11.65;;;;;;;23.83;59.90;99067.56;5024590;28;20038;-90
2021/06/08 10:02:43;;;;;;;17.52;11.60;;;;;;;23.57;60.86;99074.63;5024882;28;20040;-90
2021/06/08 10:05:25;;;;;;;16.52;12.32;;;;;;;23.45;62.07;99066.50;5023247;28;20028;-90
2021/06/08 10:08:04;;;;;;;19.15;12.68;;;;;;;23.58;61.87;99065.63;5023140;28;20029;-90
2021/06/08 10:10:49;;;;;;;19.02;11.30;;;;;;;23.61;61.66;99057.38;5024511;28;20391;-89
2021/06/08 10:13:23;;;;;;;19.50;12.70;;;;;;;23.73;61.71;99056.53;5023150;28;20072;-90
2021/06/08 10:16:00;;;;;;;15.07;10.75;;;;;;;24.62;58.44;99070.16;5024320;28;20217;-90
2021/06/08 10:18:50;;;;;;;12.90;10.63;;;;;;;24.59;58.09;99059.63;5023068;28;20022;-90
2021/06/08 10:21:32;;;;;;;14.10;11.55;;;;;;;24.12;59.82;99059.31;5018075;28;20034;-90
2021/06/08 10:24:18;;;;;;;16.25;12.20;;;;;;;23.41;63.89;99059.63;5023058;28;20320;-90
2021/06/08 10:26:52;;;;;;;16.25;11.27;;;;;;;23.46;62.17;99068.22;5022939;28;20034;-89
2021/06/08 10:29:34;;;;;;;12.80;11.30;;;;;;;23.23;61.85;99061.66;5023992;28;20041;-89
2021/06/08 10:32:01;;;;;;;13.95;11.60;;;;;;;23.25;62.48;99055.22;5022989;28;20061;-89
2021/06/08 10:34:29;;;;;;;14.43;11.65;;;;;;;23.30;62.33;99052.22;5006765;28;20036;-89
2021/06/08 10:36:55;;;;;;;13.73;11.32;;;;;;;23.36;63.21;99051.84;5006822;28;20030;-89
2021/06/08 10:39:25;;;;;;;16.02;12.27;;;;;;;23.14;61.56;99051.44;5022802;28;20025;-89
2021/06/08 10:41:52;;;;;;;15.50;11.70;;;;;;;23.42;61.94;99059.50;5022576;28;20038;-89
2021/06/08 10:44:25;;;;;;;19.08;13.30;;;;;;;23.42;61.02;99051.47;5022504;28;20038;-89
2021/06/08 10:46:55;;;;;;;14.77;11.35;;;;;;;23.40;61.10;99053.38;5022519;28;20041;-90
2021/06/08 10:49:38;;;;;;;14.25;11.25;;;;;;;23.45;61.06;99056.63;5022789;28;20026;-89
2021/06/08 10:52:09;;;;;;;14.68;12.00;;;;;;;23.41;61.73;99048.88;5022525;28;20025;-89
2021/06/08 10:54:40;;;;;;;14.45;11.48;;;;;;;23.28;61.23;99044.28;5022513;28;20037;-89
2021/06/08 10:57:12;;;;;;;15.80;12.35;;;;;;;23.27;61.21;99036.31;5022631;28;20254;-89
2021/06/08 10:59:39;;;;;;;;;;;;;;;23.39;60.67;99040.03;5023139;28;20292;-89
2021/06/08 11:02:07;;;;;;;15.30;11.27;;;;;;;23.54;61.74;99039.88;5023614;28;19905;-89
2021/06/08 11:04:54;;;;;;;16.05;11.85;;;;;;;23.76;61.38;99040.22;5022441;28;20198;-89
2021/06/08 11:08:03;;;;;;;14.80;11.13;;;;;;;23.63;60.80;99028.53;5023923;28;20030;-89
2021/06/08 11:10:33;;;;;;;17.15;11.75;;;;;;;23.48;63.72;99024.19;4987625;28;20233;-90
2021/06/08 11:13:16;;;;;;;13.57;11.10;;;;;;;23.59;62.19;99031.53;4989736;28;20229;-89
2021/06/08 11:16:10;;;;;;;15.18;11.60;;;;;;;23.63;60.95;99028.53;4989699;28;20030;-89
2021/06/08 11:18:43;;;;;;;12.63;10.50;;;;;;;23.56;62.34;99032.59;5005857;28;20033;-89
2021/06/08 11:21:13;;;;;;;14.40;11.60;;;;;;;23.82;62.67;99034.44;4989538;28;20030;-89
2021/06/08 11:24:03;;;;;;;16.55;11.63;;;;;;;23.88;62.08;99028.66;4989475;28;20053;-89
2021/06/08 11:27:14;;;;;;;14.77;10.80;;;;;;;23.79;61.14;99029.25;4989360;28;20030;-89
2021/06/08 11:29:53;;;;;;;13.38;10.35;;;;;;;24.14;61.81;99029.63;4989464;28;20030;-89
2021/06/08 11:32:37;;;;;;;13.88;11.55;;;;;;;24.46;61.97;99021.06;5005326;28;20038;-89
2021/06/08 11:35:18;;;;;;;14.32;11.52;;;;;;;24.68;60.39;99021.31;4989359;28;20034;-89
2021/06/08 11:37:57;;;;;;;13.68;10.20;;;;;;;24.90;60.06;99009.91;4989281;28;20045;-89